sensor_id;sensor_type;location;lat;lon;timestamp;temperature;humidity
9730;DHT22;4904;49.152;11.004;2023-05-10T00:00:39;15.40;99.90
9730;DHT22;4904;49.152;11.004;2023-05-10T00:03:06;15.40;99.90
9730;DHT22;4904;49.152;11.004;2023-05-10T00:05:34;15.30;99.90
9730;DHT22;4904;49.152;11.004;2023-05-10T00:08:01;15.10;99.90
9730;DHT22;4904;49.152;11.004;2023-05-10T00:10:28;15.20;99.90
9730;DHT22;4904;49.152;11.004;2023-05-10T00:12:55;15.30;99.90
9730;DHT22;4904;49.152;11.004;2023-05-10T00:15:22;15.30;99.90
9730;DHT22;4904;49.152;11.004;2023-05-10T00:17:49;15.30;99.90
9730;DHT22;4904;49.152;11.004;2023-05-10T00:20:16;15.40;99.90
9730;DHT22;4904;49.152;11.004;2023-05-10T00:22:44;15.50;99.90
9730;DHT22;4904;49.152;11.004;2023-05-10T00:25:11;15.60;99.90
9730;DHT22;4904;49.152;11.004;2023-05-10T00:27:38;15.60;99.90
9730;DHT22;4904;49.152;11.004;2023-05-10T00:30:07;15.60;99.90
9730;DHT22;4904;49.152;11.004;2023-05-10T00:32:34;15.60;99.90
9730;DHT22;4904;49.152;11.004;2023-05-10T00:35:01;15.60;99.90
9730;DHT22;4904;49.152;11.004;2023-05-10T00:37:27;15.60;99.90
9730;DHT22;4904;49.152;11.004;2023-05-10T00:39:56;15.60;99.90
9730;DHT22;4904;49.152;11.004;2023-05-10T00:42:22;15.50;99.90
9730;DHT22;4904;49.152;11.004;2023-05-10T00:44:49;15.40;99.90
9730;DHT22;4904;49.152;11.004;2023-05-10T00:47:16;15.30;99.90
9730;DHT22;4904;49.152;11.004;2023-05-10T00:49:44;15.10;99.90
9730;DHT22;4904;49.152;11.004;2023-05-10T00:52:12;15.00;99.90
9730;DHT22;4904;49.152;11.004;2023-05-10T00:54:39;15.00;99.90
9730;DHT22;4904;49.152;11.004;2023-05-10T00:57:07;14.90;99.90
9730;DHT22;4904;49.152;11.004;2023-05-10T00:59:34;14.80;99.90
9730;DHT22;4904;49.152;11.004;2023-05-10T01:02:01;14.70;99.90
9730;DHT22;4904;49.152;11.004;2023-05-10T01:04:28;14.60;99.90
9730;DHT22;4904;49.152;11.004;2023-05-10T01:06:56;14.60;99.90
9730;DHT22;4904;49.152;11.004;2023-05-10T01:09:23;14.50;99.90
9730;DHT22;4904;49.152;11.004;2023-05-10T01:11:52;14.60;99.90
9730;DHT22;4904;49.152;11.004;2023-05-10T01:14:20;14.50;99.90
9730;DHT22;4904;49.152;11.004;2023-05-10T01:16:49;14.30;99.90
9730;DHT22;4904;49.152;11.004;2023-05-10T01:19:19;14.60;99.90
9730;DHT22;4904;49.152;11.004;2023-05-10T01:21:51;14.60;99.90
9730;DHT22;4904;49.152;11.004;2023-05-10T01:27:59;14.70;99.90
9730;DHT22;4904;49.152;11.004;2023-05-10T01:33:26;14.60;99.90
9730;DHT22;4904;49.152;11.004;2023-05-10T01:35:58;14.60;99.90
9730;DHT22;4904;49.152;11.004;2023-05-10T01:38:36;14.60;99.90
9730;DHT22;4904;49.152;11.004;2023-05-10T01:41:12;14.70;99.90
9730;DHT22;4904;49.152;11.004;2023-05-10T01:43:46;14.50;99.90
9730;DHT22;4904;49.152;11.004;2023-05-10T01:46:20;14.60;99.90
9730;DHT22;4904;49.152;11.004;2023-05-10T01:48:51;14.60;99.90
9730;DHT22;4904;49.152;11.004;2023-05-10T01:51:23;14.50;99.90
9730;DHT22;4904;49.152;11.004;2023-05-10T01:53:56;14.60;99.90
9730;DHT22;4904;49.152;11.004;2023-05-10T01:56:26;14.70;99.90
9730;DHT22;4904;49.152;11.004;2023-05-10T01:58:55;14.70;99.90
9730;DHT22;4904;49.152;11.004;2023-05-10T02:01:24;14.70;99.90
9730;DHT22;4904;49.152;11.004;2023-05-10T02:03:55;14.80;99.90
9730;DHT22;4904;49.152;11.004;2023-05-10T02:06:22;14.90;99.90
9730;DHT22;4904;49.152;11.004;2023-05-10T02:08:51;14.70;99.90
9730;DHT22;4904;49.152;11.004;2023-05-10T02:11:20;14.80;99.90
9730;DHT22;4904;49.152;11.004;2023-05-10T02:13:48;14.70;99.90
9730;DHT22;4904;49.152;11.004;2023-05-10T02:16:16;14.70;99.90
9730;DHT22;4904;49.152;11.004;2023-05-10T02:18:44;14.60;99.90
9730;DHT22;4904;49.152;11.004;2023-05-10T02:21:13;14.50;99.90
9730;DHT22;4904;49.152;11.004;2023-05-10T02:23:43;14.40;99.90
9730;DHT22;4904;49.152;11.004;2023-05-10T02:26:11;14.40;99.90
9730;DHT22;4904;49.152;11.004;2023-05-10T02:28:40;14.40;99.90
9730;DHT22;4904;49.152;11.004;2023-05-10T02:31:07;14.50;99.90
9730;DHT22;4904;49.152;11.004;2023-05-10T02:33:38;14.60;99.90
9730;DHT22;4904;49.152;11.004;2023-05-10T02:36:07;14.40;99.90
9730;DHT22;4904;49.152;11.004;2023-05-10T02:38:37;14.20;99.90
9730;DHT22;4904;49.152;11.004;2023-05-10T02:41:06;14.40;99.90
9730;DHT22;4904;49.152;11.004;2023-05-10T02:43:35;14.10;99.90
9730;DHT22;4904;49.152;11.004;2023-05-10T02:46:04;14.10;99.90
9730;DHT22;4904;49.152;11.004;2023-05-10T02:48:30;14.10;99.90
9730;DHT22;4904;49.152;11.004;2023-05-10T02:51:03;14.00;99.90
9730;DHT22;4904;49.152;11.004;2023-05-10T02:53:33;14.00;99.90
9730;DHT22;4904;49.152;11.004;2023-05-10T02:56:04;13.90;99.90
9730;DHT22;4904;49.152;11.004;2023-05-10T02:58:32;13.90;99.90
9730;DHT22;4904;49.152;11.004;2023-05-10T03:00:59;13.80;99.90
9730;DHT22;4904;49.152;11.004;2023-05-10T03:03:26;13.80;99.90
9730;DHT22;4904;49.152;11.004;2023-05-10T03:05:53;13.80;99.90
9730;DHT22;4904;49.152;11.004;2023-05-10T03:08:21;13.70;99.90
9730;DHT22;4904;49.152;11.004;2023-05-10T03:11:12;13.70;99.90
9730;DHT22;4904;49.152;11.004;2023-05-10T03:13:49;13.60;99.90
9730;DHT22;4904;49.152;11.004;2023-05-10T03:16:24;13.60;99.90
9730;DHT22;4904;49.152;11.004;2023-05-10T03:18:59;13.50;99.90
9730;DHT22;4904;49.152;11.004;2023-05-10T03:21:29;13.50;99.90
9730;DHT22;4904;49.152;11.004;2023-05-10T03:23:59;13.50;99.90
9730;DHT22;4904;49.152;11.004;2023-05-10T03:26:30;13.50;99.90
9730;DHT22;4904;49.152;11.004;2023-05-10T03:28:58;13.50;99.90
9730;DHT22;4904;49.152;11.004;2023-05-10T03:31:25;13.50;99.90
9730;DHT22;4904;49.152;11.004;2023-05-10T03:33:53;13.50;99.90
9730;DHT22;4904;49.152;11.004;2023-05-10T03:36:19;13.40;99.90
9730;DHT22;4904;49.152;11.004;2023-05-10T03:38:46;13.40;99.90
9730;DHT22;4904;49.152;11.004;2023-05-10T03:41:13;13.30;99.90
9730;DHT22;4904;49.152;11.004;2023-05-10T03:43:40;13.30;99.90
9730;DHT22;4904;49.152;11.004;2023-05-10T03:46:08;13.30;99.90
9730;DHT22;4904;49.152;11.004;2023-05-10T03:48:35;13.30;99.90
9730;DHT22;4904;49.152;11.004;2023-05-10T03:51:02;13.20;99.90
9730;DHT22;4904;49.152;11.004;2023-05-10T03:53:29;13.20;99.90
9730;DHT22;4904;49.152;11.004;2023-05-10T03:55:56;13.20;99.90
9730;DHT22;4904;49.152;11.004;2023-05-10T03:58:23;13.20;99.90
9730;DHT22;4904;49.152;11.004;2023-05-10T04:00:50;13.20;99.90
9730;DHT22;4904;49.152;11.004;2023-05-10T04:03:19;13.10;99.90
9730;DHT22;4904;49.152;11.004;2023-05-10T04:05:45;13.10;99.90
9730;DHT22;4904;49.152;11.004;2023-05-10T04:08:12;13.00;99.90
9730;DHT22;4904;49.152;11.004;2023-05-10T04:10:40;13.00;99.90
9730;DHT22;4904;49.152;11.004;2023-05-10T04:13:07;12.90;99.90
9730;DHT22;4904;49.152;11.004;2023-05-10T04:15:34;12.90;99.90
9730;DHT22;4904;49.152;11.004;2023-05-10T04:18:01;12.80;99.90
9730;DHT22;4904;49.152;11.004;2023-05-10T04:20:29;12.80;99.90
9730;DHT22;4904;49.152;11.004;2023-05-10T04:22:56;12.80;99.90
9730;DHT22;4904;49.152;11.004;2023-05-10T04:25:22;12.70;99.90
9730;DHT22;4904;49.152;11.004;2023-05-10T04:27:49;12.80;99.90
9730;DHT22;4904;49.152;11.004;2023-05-10T04:30:16;12.70;99.90
9730;DHT22;4904;49.152;11.004;2023-05-10T04:32:44;12.80;99.90
9730;DHT22;4904;49.152;11.004;2023-05-10T04:35:11;12.80;99.90
9730;DHT22;4904;49.152;11.004;2023-05-10T04:37:41;12.80;99.90
9730;DHT22;4904;49.152;11.004;2023-05-10T04:40:09;12.80;99.90
9730;DHT22;4904;49.152;11.004;2023-05-10T04:42:36;12.80;99.90
9730;DHT22;4904;49.152;11.004;2023-05-10T04:45:04;12.80;99.90
9730;DHT22;4904;49.152;11.004;2023-05-10T04:47:31;12.80;99.90
9730;DHT22;4904;49.152;11.004;2023-05-10T04:49:58;12.80;99.90
9730;DHT22;4904;49.152;11.004;2023-05-10T04:52:24;12.70;99.90
9730;DHT22;4904;49.152;11.004;2023-05-10T04:54:53;12.70;99.90
9730;DHT22;4904;49.152;11.004;2023-05-10T04:57:20;12.70;99.90
9730;DHT22;4904;49.152;11.004;2023-05-10T04:59:47;12.60;99.90
9730;DHT22;4904;49.152;11.004;2023-05-10T05:02:14;12.50;99.90
9730;DHT22;4904;49.152;11.004;2023-05-10T05:04:41;12.40;99.90
9730;DHT22;4904;49.152;11.004;2023-05-10T05:07:08;12.40;99.90
9730;DHT22;4904;49.152;11.004;2023-05-10T05:09:35;12.40;99.90
9730;DHT22;4904;49.152;11.004;2023-05-10T05:12:04;12.20;99.90
9730;DHT22;4904;49.152;11.004;2023-05-10T05:14:30;12.30;99.90
9730;DHT22;4904;49.152;11.004;2023-05-10T05:16:57;12.30;99.90
9730;DHT22;4904;49.152;11.004;2023-05-10T05:19:24;12.30;99.90
9730;DHT22;4904;49.152;11.004;2023-05-10T05:21:51;12.30;99.90
9730;DHT22;4904;49.152;11.004;2023-05-10T05:24:18;12.30;99.90
9730;DHT22;4904;49.152;11.004;2023-05-10T05:26:45;12.30;99.90
9730;DHT22;4904;49.152;11.004;2023-05-10T05:29:14;12.40;99.90
9730;DHT22;4904;49.152;11.004;2023-05-10T05:31:40;12.40;99.90
9730;DHT22;4904;49.152;11.004;2023-05-10T05:34:07;12.40;99.90
9730;DHT22;4904;49.152;11.004;2023-05-10T05:36:37;12.40;99.90
9730;DHT22;4904;49.152;11.004;2023-05-10T05:39:05;12.40;99.90
9730;DHT22;4904;49.152;11.004;2023-05-10T05:41:33;12.40;99.90
9730;DHT22;4904;49.152;11.004;2023-05-10T05:44:00;12.50;99.90
9730;DHT22;4904;49.152;11.004;2023-05-10T05:46:28;12.50;99.90
9730;DHT22;4904;49.152;11.004;2023-05-10T05:48:55;12.60;99.90
9730;DHT22;4904;49.152;11.004;2023-05-10T05:51:22;12.60;99.90
9730;DHT22;4904;49.152;11.004;2023-05-10T05:53:49;12.60;99.90
9730;DHT22;4904;49.152;11.004;2023-05-10T05:56:15;12.60;99.90
9730;DHT22;4904;49.152;11.004;2023-05-10T05:58:43;12.70;99.90
9730;DHT22;4904;49.152;11.004;2023-05-10T06:01:10;12.70;99.90
9730;DHT22;4904;49.152;11.004;2023-05-10T06:03:38;12.70;99.90
9730;DHT22;4904;49.152;11.004;2023-05-10T06:06:05;12.80;99.90
9730;DHT22;4904;49.152;11.004;2023-05-10T06:08:32;12.80;99.90
9730;DHT22;4904;49.152;11.004;2023-05-10T06:10:59;12.80;99.90
9730;DHT22;4904;49.152;11.004;2023-05-10T06:13:26;12.90;99.90
9730;DHT22;4904;49.152;11.004;2023-05-10T06:15:57;13.00;99.90
9730;DHT22;4904;49.152;11.004;2023-05-10T06:18:24;13.10;99.90
9730;DHT22;4904;49.152;11.004;2023-05-10T06:20:52;13.00;99.90
9730;DHT22;4904;49.152;11.004;2023-05-10T06:23:19;13.10;99.90
9730;DHT22;4904;49.152;11.004;2023-05-10T06:25:47;13.20;99.90
9730;DHT22;4904;49.152;11.004;2023-05-10T06:28:14;13.20;99.90
9730;DHT22;4904;49.152;11.004;2023-05-10T06:30:41;13.30;99.90
9730;DHT22;4904;49.152;11.004;2023-05-10T06:33:08;13.30;99.90
9730;DHT22;4904;49.152;11.004;2023-05-10T06:35:35;13.40;99.90
9730;DHT22;4904;49.152;11.004;2023-05-10T06:38:03;13.30;99.90
9730;DHT22;4904;49.152;11.004;2023-05-10T06:40:30;13.10;99.90
9730;DHT22;4904;49.152;11.004;2023-05-10T06:42:58;13.00;99.90
9730;DHT22;4904;49.152;11.004;2023-05-10T06:45:25;13.00;99.90
9730;DHT22;4904;49.152;11.004;2023-05-10T06:47:52;13.20;99.90
9730;DHT22;4904;49.152;11.004;2023-05-10T06:50:18;13.10;99.90
9730;DHT22;4904;49.152;11.004;2023-05-10T06:52:45;13.10;99.90
9730;DHT22;4904;49.152;11.004;2023-05-10T06:55:14;13.20;99.90
9730;DHT22;4904;49.152;11.004;2023-05-10T06:57:41;13.20;99.90
9730;DHT22;4904;49.152;11.004;2023-05-10T07:00:08;13.20;99.90
9730;DHT22;4904;49.152;11.004;2023-05-10T07:02:36;13.20;99.90
9730;DHT22;4904;49.152;11.004;2023-05-10T07:05:03;13.20;99.90
9730;DHT22;4904;49.152;11.004;2023-05-10T07:07:30;13.20;99.90
9730;DHT22;4904;49.152;11.004;2023-05-10T07:09:57;13.10;99.90
9730;DHT22;4904;49.152;11.004;2023-05-10T07:12:25;13.10;99.90
9730;DHT22;4904;49.152;11.004;2023-05-10T07:14:52;13.20;99.90
9730;DHT22;4904;49.152;11.004;2023-05-10T07:17:19;13.20;99.90
9730;DHT22;4904;49.152;11.004;2023-05-10T07:19:46;13.20;99.90
9730;DHT22;4904;49.152;11.004;2023-05-10T07:22:13;13.20;99.90
9730;DHT22;4904;49.152;11.004;2023-05-10T07:24:40;13.40;99.90
9730;DHT22;4904;49.152;11.004;2023-05-10T07:27:07;13.40;99.90
9730;DHT22;4904;49.152;11.004;2023-05-10T07:29:36;13.40;99.90
9730;DHT22;4904;49.152;11.004;2023-05-10T07:32:03;13.30;99.90
9730;DHT22;4904;49.152;11.004;2023-05-10T07:34:31;13.30;99.90
9730;DHT22;4904;49.152;11.004;2023-05-10T07:36:58;13.30;99.90
9730;DHT22;4904;49.152;11.004;2023-05-10T07:39:26;13.20;99.90
9730;DHT22;4904;49.152;11.004;2023-05-10T07:41:52;13.30;99.90
9730;DHT22;4904;49.152;11.004;2023-05-10T07:44:19;13.40;99.90
9730;DHT22;4904;49.152;11.004;2023-05-10T07:46:48;13.40;99.90
9730;DHT22;4904;49.152;11.004;2023-05-10T07:49:15;13.50;99.90
9730;DHT22;4904;49.152;11.004;2023-05-10T07:51:41;13.50;99.90
9730;DHT22;4904;49.152;11.004;2023-05-10T07:54:08;13.70;99.90
9730;DHT22;4904;49.152;11.004;2023-05-10T07:56:35;13.70;99.90
9730;DHT22;4904;49.152;11.004;2023-05-10T07:59:03;13.80;99.90
9730;DHT22;4904;49.152;11.004;2023-05-10T08:01:31;13.90;99.90
9730;DHT22;4904;49.152;11.004;2023-05-10T08:04:00;14.10;99.90
9730;DHT22;4904;49.152;11.004;2023-05-10T08:06:27;14.20;99.90
9730;DHT22;4904;49.152;11.004;2023-05-10T08:08:55;14.30;99.90
9730;DHT22;4904;49.152;11.004;2023-05-10T08:11:22;14.20;99.90
9730;DHT22;4904;49.152;11.004;2023-05-10T08:13:50;14.30;99.90
9730;DHT22;4904;49.152;11.004;2023-05-10T08:16:18;14.20;99.90
9730;DHT22;4904;49.152;11.004;2023-05-10T08:18:45;14.20;99.90
9730;DHT22;4904;49.152;11.004;2023-05-10T08:21:14;14.20;99.90
9730;DHT22;4904;49.152;11.004;2023-05-10T08:23:41;14.30;99.90
9730;DHT22;4904;49.152;11.004;2023-05-10T08:26:09;14.30;99.90
9730;DHT22;4904;49.152;11.004;2023-05-10T08:28:36;14.20;99.90
9730;DHT22;4904;49.152;11.004;2023-05-10T08:31:04;14.30;99.90
9730;DHT22;4904;49.152;11.004;2023-05-10T08:33:31;14.30;99.90
9730;DHT22;4904;49.152;11.004;2023-05-10T08:35:58;14.50;99.90
9730;DHT22;4904;49.152;11.004;2023-05-10T08:38:26;14.50;99.90
9730;DHT22;4904;49.152;11.004;2023-05-10T08:40:54;14.30;99.90
9730;DHT22;4904;49.152;11.004;2023-05-10T08:43:26;14.40;99.90
9730;DHT22;4904;49.152;11.004;2023-05-10T08:45:54;14.40;99.90
9730;DHT22;4904;49.152;11.004;2023-05-10T08:48:23;14.60;99.90
9730;DHT22;4904;49.152;11.004;2023-05-10T08:50:53;14.60;99.90
9730;DHT22;4904;49.152;11.004;2023-05-10T08:53:21;14.60;99.90
9730;DHT22;4904;49.152;11.004;2023-05-10T08:55:52;14.70;99.90
9730;DHT22;4904;49.152;11.004;2023-05-10T08:58:19;14.70;99.90
9730;DHT22;4904;49.152;11.004;2023-05-10T09:00:49;14.80;99.90
9730;DHT22;4904;49.152;11.004;2023-05-10T09:03:17;14.80;99.90
9730;DHT22;4904;49.152;11.004;2023-05-10T09:05:45;14.80;99.90
9730;DHT22;4904;49.152;11.004;2023-05-10T09:08:12;14.90;99.90
9730;DHT22;4904;49.152;11.004;2023-05-10T09:10:42;15.00;99.90
9730;DHT22;4904;49.152;11.004;2023-05-10T09:13:12;15.00;99.90
9730;DHT22;4904;49.152;11.004;2023-05-10T09:15:39;14.90;99.90
9730;DHT22;4904;49.152;11.004;2023-05-10T09:18:06;15.10;99.90
9730;DHT22;4904;49.152;11.004;2023-05-10T09:20:33;15.10;99.90
9730;DHT22;4904;49.152;11.004;2023-05-10T09:23:00;15.30;99.90
9730;DHT22;4904;49.152;11.004;2023-05-10T09:25:27;15.30;99.90
9730;DHT22;4904;49.152;11.004;2023-05-10T09:27:53;15.00;99.90
9730;DHT22;4904;49.152;11.004;2023-05-10T09:30:26;15.00;99.90
9730;DHT22;4904;49.152;11.004;2023-05-10T09:32:54;14.90;99.90
9730;DHT22;4904;49.152;11.004;2023-05-10T09:35:22;14.90;99.90
9730;DHT22;4904;49.152;11.004;2023-05-10T09:37:52;14.70;99.90
9730;DHT22;4904;49.152;11.004;2023-05-10T09:40:20;14.60;99.90
9730;DHT22;4904;49.152;11.004;2023-05-10T09:42:52;14.70;99.90
9730;DHT22;4904;49.152;11.004;2023-05-10T09:45:20;14.60;99.90
9730;DHT22;4904;49.152;11.004;2023-05-10T09:47:48;14.70;99.90
9730;DHT22;4904;49.152;11.004;2023-05-10T09:50:15;14.80;99.90
9730;DHT22;4904;49.152;11.004;2023-05-10T09:52:49;14.80;99.90
9730;DHT22;4904;49.152;11.004;2023-05-10T09:55:18;14.80;99.90
9730;DHT22;4904;49.152;11.004;2023-05-10T09:57:46;14.80;99.90
9730;DHT22;4904;49.152;11.004;2023-05-10T10:00:17;14.80;99.90
9730;DHT22;4904;49.152;11.004;2023-05-10T10:02:47;14.80;99.90
9730;DHT22;4904;49.152;11.004;2023-05-10T10:05:15;14.70;99.90
9730;DHT22;4904;49.152;11.004;2023-05-10T10:07:42;14.70;99.90
9730;DHT22;4904;49.152;11.004;2023-05-10T10:10:09;14.70;99.90
9730;DHT22;4904;49.152;11.004;2023-05-10T10:12:39;14.70;99.90
9730;DHT22;4904;49.152;11.004;2023-05-10T10:15:08;14.80;99.90
9730;DHT22;4904;49.152;11.004;2023-05-10T10:17:36;15.00;99.90
9730;DHT22;4904;49.152;11.004;2023-05-10T10:20:06;14.90;99.90
9730;DHT22;4904;49.152;11.004;2023-05-10T10:22:34;15.00;99.90
9730;DHT22;4904;49.152;11.004;2023-05-10T10:25:01;15.00;99.90
9730;DHT22;4904;49.152;11.004;2023-05-10T10:27:36;15.00;99.90
9730;DHT22;4904;49.152;11.004;2023-05-10T10:30:13;15.10;99.90
9730;DHT22;4904;49.152;11.004;2023-05-10T10:35:48;15.10;99.90
9730;DHT22;4904;49.152;11.004;2023-05-10T10:38:16;15.00;99.90
9730;DHT22;4904;49.152;11.004;2023-05-10T10:40:43;15.00;99.90
9730;DHT22;4904;49.152;11.004;2023-05-10T10:43:23;15.00;99.90
9730;DHT22;4904;49.152;11.004;2023-05-10T10:46:11;14.90;99.90
9730;DHT22;4904;49.152;11.004;2023-05-10T10:48:39;15.00;99.90
9730;DHT22;4904;49.152;11.004;2023-05-10T10:51:07;14.90;99.90
9730;DHT22;4904;49.152;11.004;2023-05-10T10:53:34;15.00;99.90
9730;DHT22;4904;49.152;11.004;2023-05-10T10:56:07;14.90;99.90
9730;DHT22;4904;49.152;11.004;2023-05-10T10:58:35;15.00;99.90
9730;DHT22;4904;49.152;11.004;2023-05-10T11:01:11;15.20;99.90
9730;DHT22;4904;49.152;11.004;2023-05-10T11:03:38;15.20;99.90
9730;DHT22;4904;49.152;11.004;2023-05-10T11:06:06;15.40;99.90
9730;DHT22;4904;49.152;11.004;2023-05-10T11:08:41;15.60;99.90
9730;DHT22;4904;49.152;11.004;2023-05-10T11:11:09;15.80;99.90
9730;DHT22;4904;49.152;11.004;2023-05-10T11:13:40;15.80;99.90
9730;DHT22;4904;49.152;11.004;2023-05-10T11:16:16;15.90;99.90
9730;DHT22;4904;49.152;11.004;2023-05-10T11:18:53;15.90;99.90
9730;DHT22;4904;49.152;11.004;2023-05-10T11:21:22;15.90;99.90
9730;DHT22;4904;49.152;11.004;2023-05-10T11:23:51;16.00;99.90
9730;DHT22;4904;49.152;11.004;2023-05-10T11:26:19;15.90;99.90
9730;DHT22;4904;49.152;11.004;2023-05-10T11:28:50;15.90;99.90
9730;DHT22;4904;49.152;11.004;2023-05-10T11:31:19;15.60;99.90
9730;DHT22;4904;49.152;11.004;2023-05-10T11:33:47;14.90;99.90
9730;DHT22;4904;49.152;11.004;2023-05-10T11:36:17;14.70;99.90
9730;DHT22;4904;49.152;11.004;2023-05-10T11:38:46;14.50;99.90
9730;DHT22;4904;49.152;11.004;2023-05-10T11:41:14;14.40;99.90
9730;DHT22;4904;49.152;11.004;2023-05-10T11:43:42;14.40;99.90
9730;DHT22;4904;49.152;11.004;2023-05-10T11:46:11;14.30;99.90
9730;DHT22;4904;49.152;11.004;2023-05-10T11:48:39;14.30;99.90
9730;DHT22;4904;49.152;11.004;2023-05-10T11:51:06;14.30;99.90
9730;DHT22;4904;49.152;11.004;2023-05-10T11:53:33;14.30;99.90
9730;DHT22;4904;49.152;11.004;2023-05-10T11:56:06;14.30;99.90
9730;DHT22;4904;49.152;11.004;2023-05-10T11:58:33;14.40;99.90
9730;DHT22;4904;49.152;11.004;2023-05-10T12:01:00;14.50;99.90
9730;DHT22;4904;49.152;11.004;2023-05-10T12:03:28;14.50;99.90
9730;DHT22;4904;49.152;11.004;2023-05-10T12:05:56;14.70;99.90
9730;DHT22;4904;49.152;11.004;2023-05-10T12:08:25;14.90;99.90
9730;DHT22;4904;49.152;11.004;2023-05-10T12:11:05;14.90;99.90
9730;DHT22;4904;49.152;11.004;2023-05-10T12:13:34;15.00;99.90
9730;DHT22;4904;49.152;11.004;2023-05-10T12:16:13;15.00;99.90
9730;DHT22;4904;49.152;11.004;2023-05-10T12:18:40;15.20;99.90
9730;DHT22;4904;49.152;11.004;2023-05-10T12:21:10;15.30;99.90
9730;DHT22;4904;49.152;11.004;2023-05-10T12:23:37;15.50;99.90
9730;DHT22;4904;49.152;11.004;2023-05-10T12:26:05;15.60;99.90
9730;DHT22;4904;49.152;11.004;2023-05-10T12:28:33;15.60;99.90
9730;DHT22;4904;49.152;11.004;2023-05-10T12:31:01;15.60;99.90
9730;DHT22;4904;49.152;11.004;2023-05-10T12:33:35;15.70;99.90
9730;DHT22;4904;49.152;11.004;2023-05-10T12:36:05;15.90;99.90
9730;DHT22;4904;49.152;11.004;2023-05-10T12:38:33;15.90;99.90
9730;DHT22;4904;49.152;11.004;2023-05-10T12:41:01;16.00;99.90
9730;DHT22;4904;49.152;11.004;2023-05-10T12:43:30;16.00;99.90
9730;DHT22;4904;49.152;11.004;2023-05-10T12:45:57;16.10;99.90
9730;DHT22;4904;49.152;11.004;2023-05-10T12:48:25;16.20;99.90
9730;DHT22;4904;49.152;11.004;2023-05-10T12:50:54;16.20;99.90
9730;DHT22;4904;49.152;11.004;2023-05-10T12:53:21;16.40;99.90
9730;DHT22;4904;49.152;11.004;2023-05-10T12:55:48;16.50;99.90
9730;DHT22;4904;49.152;11.004;2023-05-10T12:58:14;16.60;99.90
9730;DHT22;4904;49.152;11.004;2023-05-10T13:00:43;16.60;99.90
9730;DHT22;4904;49.152;11.004;2023-05-10T13:03:10;16.60;99.90
9730;DHT22;4904;49.152;11.004;2023-05-10T13:05:37;16.70;99.90
9730;DHT22;4904;49.152;11.004;2023-05-10T13:08:04;16.80;99.90
9730;DHT22;4904;49.152;11.004;2023-05-10T13:10:31;16.90;99.90
9730;DHT22;4904;49.152;11.004;2023-05-10T13:12:58;16.90;99.90
9730;DHT22;4904;49.152;11.004;2023-05-10T13:15:26;16.40;99.90
9730;DHT22;4904;49.152;11.004;2023-05-10T13:17:54;16.50;99.90
9730;DHT22;4904;49.152;11.004;2023-05-10T13:20:21;16.40;99.90
9730;DHT22;4904;49.152;11.004;2023-05-10T13:22:48;16.40;99.90
9730;DHT22;4904;49.152;11.004;2023-05-10T13:25:15;16.60;99.90
9730;DHT22;4904;49.152;11.004;2023-05-10T13:27:42;16.70;99.90
9730;DHT22;4904;49.152;11.004;2023-05-10T13:30:09;16.40;99.90
9730;DHT22;4904;49.152;11.004;2023-05-10T13:32:37;16.40;99.90
9730;DHT22;4904;49.152;11.004;2023-05-10T13:35:06;16.40;99.90
9730;DHT22;4904;49.152;11.004;2023-05-10T13:37:33;16.40;99.90
9730;DHT22;4904;49.152;11.004;2023-05-10T13:40:03;16.30;99.90
9730;DHT22;4904;49.152;11.004;2023-05-10T13:42:30;16.30;99.90
9730;DHT22;4904;49.152;11.004;2023-05-10T13:44:58;16.40;99.90
9730;DHT22;4904;49.152;11.004;2023-05-10T13:47:26;16.20;99.90
9730;DHT22;4904;49.152;11.004;2023-05-10T13:49:53;16.20;99.90
9730;DHT22;4904;49.152;11.004;2023-05-10T13:52:21;16.20;99.90
9730;DHT22;4904;49.152;11.004;2023-05-10T13:54:48;16.30;99.90
9730;DHT22;4904;49.152;11.004;2023-05-10T13:57:15;16.30;99.90
9730;DHT22;4904;49.152;11.004;2023-05-10T13:59:42;16.40;99.90
9730;DHT22;4904;49.152;11.004;2023-05-10T14:02:09;16.20;99.90
9730;DHT22;4904;49.152;11.004;2023-05-10T14:04:36;16.10;99.90
9730;DHT22;4904;49.152;11.004;2023-05-10T14:07:03;16.00;99.90
9730;DHT22;4904;49.152;11.004;2023-05-10T14:09:31;15.70;99.90
9730;DHT22;4904;49.152;11.004;2023-05-10T14:11:58;15.60;99.90
9730;DHT22;4904;49.152;11.004;2023-05-10T14:14:25;15.20;99.90
9730;DHT22;4904;49.152;11.004;2023-05-10T14:16:52;15.10;99.90
9730;DHT22;4904;49.152;11.004;2023-05-10T14:19:19;14.90;99.90
9730;DHT22;4904;49.152;11.004;2023-05-10T14:21:46;14.80;99.90
9730;DHT22;4904;49.152;11.004;2023-05-10T14:24:13;14.80;99.90
9730;DHT22;4904;49.152;11.004;2023-05-10T14:26:41;14.80;99.90
9730;DHT22;4904;49.152;11.004;2023-05-10T14:29:08;14.70;99.90
9730;DHT22;4904;49.152;11.004;2023-05-10T14:31:35;14.70;99.90
9730;DHT22;4904;49.152;11.004;2023-05-10T14:34:01;14.80;99.90
9730;DHT22;4904;49.152;11.004;2023-05-10T14:36:28;14.60;99.90
9730;DHT22;4904;49.152;11.004;2023-05-10T14:38:55;14.70;99.90
9730;DHT22;4904;49.152;11.004;2023-05-10T14:41:22;14.80;99.90
9730;DHT22;4904;49.152;11.004;2023-05-10T14:43:51;15.00;99.90
9730;DHT22;4904;49.152;11.004;2023-05-10T14:46:18;15.30;99.90
9730;DHT22;4904;49.152;11.004;2023-05-10T14:48:45;15.50;99.90
9730;DHT22;4904;49.152;11.004;2023-05-10T14:51:12;15.70;99.90
9730;DHT22;4904;49.152;11.004;2023-05-10T14:53:39;15.90;99.90
9730;DHT22;4904;49.152;11.004;2023-05-10T14:56:06;15.90;99.90
9730;DHT22;4904;49.152;11.004;2023-05-10T14:58:33;15.90;99.90
9730;DHT22;4904;49.152;11.004;2023-05-10T15:01:01;15.80;99.90
9730;DHT22;4904;49.152;11.004;2023-05-10T15:03:28;15.90;99.90
9730;DHT22;4904;49.152;11.004;2023-05-10T15:05:55;15.90;99.90
9730;DHT22;4904;49.152;11.004;2023-05-10T15:08:23;16.00;99.90
9730;DHT22;4904;49.152;11.004;2023-05-10T15:10:50;16.00;99.90
9730;DHT22;4904;49.152;11.004;2023-05-10T15:13:17;16.10;99.90
9730;DHT22;4904;49.152;11.004;2023-05-10T15:15:44;15.50;99.90
9730;DHT22;4904;49.152;11.004;2023-05-10T15:18:12;15.10;99.90
9730;DHT22;4904;49.152;11.004;2023-05-10T15:20:39;14.60;99.90
9730;DHT22;4904;49.152;11.004;2023-05-10T15:23:06;14.40;99.90
9730;DHT22;4904;49.152;11.004;2023-05-10T15:25:33;14.10;99.90
9730;DHT22;4904;49.152;11.004;2023-05-10T15:28:03;13.80;99.90
9730;DHT22;4904;49.152;11.004;2023-05-10T15:30:30;13.60;99.90
9730;DHT22;4904;49.152;11.004;2023-05-10T15:32:57;13.60;99.90
9730;DHT22;4904;49.152;11.004;2023-05-10T15:35:25;13.30;99.90
9730;DHT22;4904;49.152;11.004;2023-05-10T15:37:52;13.20;99.90
9730;DHT22;4904;49.152;11.004;2023-05-10T15:40:19;13.20;99.90
9730;DHT22;4904;49.152;11.004;2023-05-10T15:42:46;13.10;99.90
9730;DHT22;4904;49.152;11.004;2023-05-10T15:45:14;13.00;99.90
9730;DHT22;4904;49.152;11.004;2023-05-10T15:47:41;13.00;99.90
9730;DHT22;4904;49.152;11.004;2023-05-10T15:50:10;13.00;99.90
9730;DHT22;4904;49.152;11.004;2023-05-10T15:52:38;12.80;99.90
9730;DHT22;4904;49.152;11.004;2023-05-10T15:55:06;12.70;99.90
9730;DHT22;4904;49.152;11.004;2023-05-10T15:57:37;12.70;99.90
9730;DHT22;4904;49.152;11.004;2023-05-10T16:00:06;12.70;99.90